KTCL

Tuscaloosa Regional Airport

Tuscaloosa, Alabama, USA
METAR KTCL 100626Z AUTO 31006KT 5SM BR OVC009 04/02 A3015 RMK AO2 CIG 007V012 T00390022 $
Observed Flight Rules
Dec-10 @ 06:26 UTC (33 minutes ago) Instrument Flight Rules
Wind Visibility Clouds Conditions
310° at 6 knots 5 miles
  • Overcast at 900' AGL
  • Mist
Temperatures Readings
Current 4°C / 39°F
Dewpoint 2°C / 36°F
Humidity 87%
Altimeter 30.15" Hg
Pressure 1021 hPa
Elevation 49
METAR KTCL 100626Z AUTO 31006KT 5SM BR OVC009 04/02 A3015 RMK AO2 CIG 007V012 T00390022 $
Observed Flight Rules
Dec-10 @ 06:26 UTC
(33 minutes ago)
IFR
Wind Visibility
310° at 6 knots 5 miles
Clouds
  • Overcast at 900' AGL
Conditions
  • Mist
Temperature Dewpoint
4°C / 39°F 2°C / 36°F
Humidity Altimeter Pressure
87% 30.15" Hg 1021 hPa